Eastpointe, Michigan
Current Conditions -  °F | °C
As of 2:53 PM on Friday 28 Nov 2014 (Local Time) from KDET Reporting Station
Overcast Overcast  
Wind Chill: 20°   Ceiling: 3200
Heat Index: 28°   Visibility: 10mi
Dew Point: 14°   Wind: 8mph
Humidity: 56%   Direction: 220°SW
Pressure: 30.22"   Gusts: NA
Location:  42.47°N, 82.96°W
Report Text: KDET 281953Z 22007KT 10SM BKN032 BKN065 OVC080 M02/M10 A3022 RMK AO2 SLP242 T10221100
Loading
Personal Weather Stations






























Interactive Weather Map New forecast layout! Learn more

10-Day Weather Forecast

Advertisements
Track Severe Weather on mobile